sensor_id;sensor_type;location;lat;lon;timestamp;pressure;altitude;pressure_sealevel;temperature;humidity
41684;BME280;27369;52.030;4.586;2022-07-29T00:02:19;102204.03;;;15.19;100.00
41684;BME280;27369;52.030;4.586;2022-07-29T00:04:44;102200.31;;;15.16;100.00
41684;BME280;27369;52.030;4.586;2022-07-29T00:07:10;102203.66;;;15.13;100.00
41684;BME280;27369;52.030;4.586;2022-07-29T00:09:35;102202.56;;;15.10;100.00
41684;BME280;27369;52.030;4.586;2022-07-29T00:12:01;102190.94;;;15.06;100.00
41684;BME280;27369;52.030;4.586;2022-07-29T00:14:26;102184.72;;;15.04;100.00
41684;BME280;27369;52.030;4.586;2022-07-29T00:16:51;102190.75;;;15.03;100.00
41684;BME280;27369;52.030;4.586;2022-07-29T00:19:16;102189.06;;;15.04;100.00
41684;BME280;27369;52.030;4.586;2022-07-29T00:21:42;102181.09;;;15.02;100.00
41684;BME280;27369;52.030;4.586;2022-07-29T00:24:07;102184.84;;;14.92;100.00
41684;BME280;27369;52.030;4.586;2022-07-29T00:26:32;102177.25;;;14.97;100.00
41684;BME280;27369;52.030;4.586;2022-07-29T00:28:58;102177.25;;;14.97;100.00
41684;BME280;27369;52.030;4.586;2022-07-29T00:31:24;102177.88;;;14.93;100.00
41684;BME280;27369;52.030;4.586;2022-07-29T00:33:49;102177.00;;;14.92;100.00
41684;BME280;27369;52.030;4.586;2022-07-29T00:36:14;102170.91;;;14.93;100.00
41684;BME280;27369;52.030;4.586;2022-07-29T00:38:39;102172.47;;;14.90;100.00
41684;BME280;27369;52.030;4.586;2022-07-29T00:41:09;102172.25;;;14.87;100.00
41684;BME280;27369;52.030;4.586;2022-07-29T00:43:34;102169.53;;;14.85;100.00
41684;BME280;27369;52.030;4.586;2022-07-29T00:45:59;102164.41;;;14.87;100.00
41684;BME280;27369;52.030;4.586;2022-07-29T00:48:24;102171.97;;;14.82;100.00
41684;BME280;27369;52.030;4.586;2022-07-29T00:50:50;102158.97;;;14.84;100.00
41684;BME280;27369;52.030;4.586;2022-07-29T00:53:15;102161.78;;;14.87;100.00
41684;BME280;27369;52.030;4.586;2022-07-29T00:55:40;102151.69;;;14.80;100.00
41684;BME280;27369;52.030;4.586;2022-07-29T00:58:06;102156.03;;;14.79;100.00
41684;BME280;27369;52.030;4.586;2022-07-29T01:00:31;102159.19;;;14.73;100.00
41684;BME280;27369;52.030;4.586;2022-07-29T01:02:56;102155.66;;;14.73;100.00
41684;BME280;27369;52.030;4.586;2022-07-29T01:05:23;102155.91;;;14.63;100.00
41684;BME280;27369;52.030;4.586;2022-07-29T01:07:51;102150.72;;;14.64;100.00
41684;BME280;27369;52.030;4.586;2022-07-29T01:10:17;102146.13;;;14.60;100.00
41684;BME280;27369;52.030;4.586;2022-07-29T01:12:44;102156.09;;;14.52;100.00
41684;BME280;27369;52.030;4.586;2022-07-29T01:15:10;102145.50;;;14.51;100.00
41684;BME280;27369;52.030;4.586;2022-07-29T01:30:14;102133.75;;;14.31;100.00
41684;BME280;27369;52.030;4.586;2022-07-29T01:32:39;102128.13;;;14.25;100.00
41684;BME280;27369;52.030;4.586;2022-07-29T01:35:06;102129.84;;;14.24;100.00
41684;BME280;27369;52.030;4.586;2022-07-29T01:39:59;102122.47;;;14.19;100.00
41684;BME280;27369;52.030;4.586;2022-07-29T01:42:36;102122.97;;;14.13;100.00
41684;BME280;27369;52.030;4.586;2022-07-29T01:45:15;102118.53;;;14.12;100.00
41684;BME280;27369;52.030;4.586;2022-07-29T01:47:46;102119.16;;;14.08;100.00
41684;BME280;27369;52.030;4.586;2022-07-29T01:50:14;102112.38;;;14.12;100.00
41684;BME280;27369;52.030;4.586;2022-07-29T01:52:49;102114.19;;;14.13;100.00
41684;BME280;27369;52.030;4.586;2022-07-29T01:55:17;102109.97;;;14.15;100.00
41684;BME280;27369;52.030;4.586;2022-07-29T01:57:46;102108.88;;;14.11;100.00
41684;BME280;27369;52.030;4.586;2022-07-29T02:00:13;102102.03;;;14.13;100.00
41684;BME280;27369;52.030;4.586;2022-07-29T02:02:39;102104.72;;;14.15;100.00
41684;BME280;27369;52.030;4.586;2022-07-29T02:05:06;102096.41;;;14.07;100.00
41684;BME280;27369;52.030;4.586;2022-07-29T02:07:33;102093.97;;;14.10;100.00
41684;BME280;27369;52.030;4.586;2022-07-29T02:09:59;102087.53;;;14.05;100.00
41684;BME280;27369;52.030;4.586;2022-07-29T02:12:26;102090.84;;;14.02;100.00
41684;BME280;27369;52.030;4.586;2022-07-29T02:14:53;102085.50;;;14.01;100.00
41684;BME280;27369;52.030;4.586;2022-07-29T02:20:08;102084.91;;;13.92;100.00
41684;BME280;27369;52.030;4.586;2022-07-29T02:22:35;102080.38;;;14.02;100.00
41684;BME280;27369;52.030;4.586;2022-07-29T02:25:00;102076.03;;;14.03;100.00
41684;BME280;27369;52.030;4.586;2022-07-29T02:27:26;102077.94;;;14.05;100.00
41684;BME280;27369;52.030;4.586;2022-07-29T02:29:53;102073.81;;;14.09;100.00
41684;BME280;27369;52.030;4.586;2022-07-29T02:32:20;102071.09;;;14.07;100.00
41684;BME280;27369;52.030;4.586;2022-07-29T02:34:46;102076.94;;;14.03;100.00
41684;BME280;27369;52.030;4.586;2022-07-29T02:37:12;102080.69;;;14.07;100.00
41684;BME280;27369;52.030;4.586;2022-07-29T02:39:39;102082.28;;;14.05;100.00
41684;BME280;27369;52.030;4.586;2022-07-29T02:42:07;102073.59;;;14.06;100.00
41684;BME280;27369;52.030;4.586;2022-07-29T02:44:33;102078.66;;;14.03;100.00
41684;BME280;27369;52.030;4.586;2022-07-29T02:52:03;102069.78;;;14.01;100.00
41684;BME280;27369;52.030;4.586;2022-07-29T02:54:37;102062.84;;;14.01;100.00
41684;BME280;27369;52.030;4.586;2022-07-29T02:57:04;102069.19;;;13.92;100.00
41684;BME280;27369;52.030;4.586;2022-07-29T02:59:30;102065.97;;;13.96;100.00
41684;BME280;27369;52.030;4.586;2022-07-29T03:01:57;102062.47;;;13.95;100.00
41684;BME280;27369;52.030;4.586;2022-07-29T03:04:24;102060.22;;;13.88;100.00
41684;BME280;27369;52.030;4.586;2022-07-29T03:06:50;102058.53;;;13.89;100.00
41684;BME280;27369;52.030;4.586;2022-07-29T03:09:17;102055.81;;;13.87;100.00
41684;BME280;27369;52.030;4.586;2022-07-29T03:11:42;102051.28;;;13.84;100.00
41684;BME280;27369;52.030;4.586;2022-07-29T03:14:09;102047.75;;;13.84;100.00
41684;BME280;27369;52.030;4.586;2022-07-29T03:16:34;102050.06;;;13.79;100.00
41684;BME280;27369;52.030;4.586;2022-07-29T03:19:01;102044.00;;;13.80;100.00
41684;BME280;27369;52.030;4.586;2022-07-29T03:21:27;102041.19;;;13.77;100.00
41684;BME280;27369;52.030;4.586;2022-07-29T03:23:52;102051.38;;;13.73;100.00
41684;BME280;27369;52.030;4.586;2022-07-29T03:26:18;102037.41;;;13.72;100.00
41684;BME280;27369;52.030;4.586;2022-07-29T03:28:43;102039.13;;;13.72;100.00
41684;BME280;27369;52.030;4.586;2022-07-29T03:31:09;102037.09;;;13.68;100.00
41684;BME280;27369;52.030;4.586;2022-07-29T03:33:34;102036.06;;;13.66;100.00
41684;BME280;27369;52.030;4.586;2022-07-29T03:35:59;102034.69;;;13.57;100.00
41684;BME280;27369;52.030;4.586;2022-07-29T03:38:27;102043.75;;;13.49;100.00
41684;BME280;27369;52.030;4.586;2022-07-29T03:40:57;102043.63;;;13.48;100.00
41684;BME280;27369;52.030;4.586;2022-07-29T03:43:25;102040.81;;;13.45;100.00
41684;BME280;27369;52.030;4.586;2022-07-29T03:45:55;102038.69;;;13.39;100.00
41684;BME280;27369;52.030;4.586;2022-07-29T03:48:21;102037.78;;;13.38;100.00
41684;BME280;27369;52.030;4.586;2022-07-29T03:50:49;102036.97;;;13.39;100.00
41684;BME280;27369;52.030;4.586;2022-07-29T03:53:15;102036.97;;;13.39;100.00
41684;BME280;27369;52.030;4.586;2022-07-29T03:55:41;102034.88;;;13.34;100.00
41684;BME280;27369;52.030;4.586;2022-07-29T03:58:08;102029.44;;;13.31;100.00
41684;BME280;27369;52.030;4.586;2022-07-29T04:00:34;102029.72;;;13.35;100.00
41684;BME280;27369;52.030;4.586;2022-07-29T04:02:59;102034.28;;;13.38;100.00
41684;BME280;27369;52.030;4.586;2022-07-29T04:05:25;102025.81;;;13.42;100.00
41684;BME280;27369;52.030;4.586;2022-07-29T04:07:50;102028.53;;;13.44;100.00
41684;BME280;27369;52.030;4.586;2022-07-29T04:10:16;102037.78;;;13.38;100.00
41684;BME280;27369;52.030;4.586;2022-07-29T04:12:42;102035.78;;;13.34;100.00
41684;BME280;27369;52.030;4.586;2022-07-29T04:15:07;102033.16;;;13.34;100.00
41684;BME280;27369;52.030;4.586;2022-07-29T04:17:33;102033.16;;;13.34;100.00
41684;BME280;27369;52.030;4.586;2022-07-29T04:19:58;102032.56;;;13.38;100.00
41684;BME280;27369;52.030;4.586;2022-07-29T04:22:23;102023.31;;;13.44;100.00
41684;BME280;27369;52.030;4.586;2022-07-29T04:24:48;102020.78;;;13.45;100.00
41684;BME280;27369;52.030;4.586;2022-07-29T04:27:14;102022.69;;;13.48;100.00
41684;BME280;27369;52.030;4.586;2022-07-29T04:29:39;102021.22;;;13.51;100.00
41684;BME280;27369;52.030;4.586;2022-07-29T04:32:04;102016.06;;;13.53;100.00
41684;BME280;27369;52.030;4.586;2022-07-29T04:34:30;102019.88;;;13.58;100.00
41684;BME280;27369;52.030;4.586;2022-07-29T04:36:55;102015.63;;;13.60;100.00
41684;BME280;27369;52.030;4.586;2022-07-29T04:39:21;102015.63;;;13.60;100.00
41684;BME280;27369;52.030;4.586;2022-07-29T04:41:46;102021.19;;;13.65;100.00
41684;BME280;27369;52.030;4.586;2022-07-29T04:44:12;102021.31;;;13.66;100.00
41684;BME280;27369;52.030;4.586;2022-07-29T04:46:37;102018.06;;;13.70;100.00
41684;BME280;27369;52.030;4.586;2022-07-29T04:49:02;102017.25;;;13.71;100.00
41684;BME280;27369;52.030;4.586;2022-07-29T04:51:28;102018.38;;;13.75;100.00
41684;BME280;27369;52.030;4.586;2022-07-29T04:53:53;102018.38;;;13.75;100.00
41684;BME280;27369;52.030;4.586;2022-07-29T04:56:18;102012.41;;;13.77;100.00
41684;BME280;27369;52.030;4.586;2022-07-29T04:58:44;102016.03;;;13.79;100.00
41684;BME280;27369;52.030;4.586;2022-07-29T05:01:09;102013.03;;;13.87;100.00
41684;BME280;27369;52.030;4.586;2022-07-29T05:03:34;102004.53;;;13.91;100.00
41684;BME280;27369;52.030;4.586;2022-07-29T05:05:59;102009.97;;;13.94;100.00
41684;BME280;27369;52.030;4.586;2022-07-29T05:08:25;102011.25;;;14.00;100.00
41684;BME280;27369;52.030;4.586;2022-07-29T05:10:50;102019.31;;;14.03;100.00
41684;BME280;27369;52.030;4.586;2022-07-29T05:13:15;102013.47;;;14.07;100.00
41684;BME280;27369;52.030;4.586;2022-07-29T05:15:41;102008.81;;;14.17;100.00
41684;BME280;27369;52.030;4.586;2022-07-29T05:18:06;102021.97;;;14.32;100.00
41684;BME280;27369;52.030;4.586;2022-07-29T05:20:31;102017.94;;;14.37;100.00
41684;BME280;27369;52.030;4.586;2022-07-29T05:22:58;102016.09;;;14.36;100.00
41684;BME280;27369;52.030;4.586;2022-07-29T05:25:24;102018.91;;;14.39;100.00
41684;BME280;27369;52.030;4.586;2022-07-29T05:27:49;102020.53;;;14.37;100.00
41684;BME280;27369;52.030;4.586;2022-07-29T05:30:15;102022.72;;;14.57;100.00
41684;BME280;27369;52.030;4.586;2022-07-29T05:32:40;102021.03;;;14.72;100.00
41684;BME280;27369;52.030;4.586;2022-07-29T05:35:05;102024.94;;;14.94;100.00
41684;BME280;27369;52.030;4.586;2022-07-29T05:37:31;102027.31;;;15.19;100.00
41684;BME280;27369;52.030;4.586;2022-07-29T05:39:56;102024.75;;;15.50;100.00
41684;BME280;27369;52.030;4.586;2022-07-29T05:42:21;102027.63;;;15.70;100.00
41684;BME280;27369;52.030;4.586;2022-07-29T05:44:46;102032.00;;;16.00;100.00
41684;BME280;27369;52.030;4.586;2022-07-29T05:47:12;102037.44;;;16.20;100.00
41684;BME280;27369;52.030;4.586;2022-07-29T05:49:38;102029.97;;;16.44;100.00
41684;BME280;27369;52.030;4.586;2022-07-29T05:52:03;102032.53;;;16.75;100.00
41684;BME280;27369;52.030;4.586;2022-07-29T05:54:29;102035.56;;;16.99;100.00
41684;BME280;27369;52.030;4.586;2022-07-29T05:56:54;102036.06;;;17.08;100.00
41684;BME280;27369;52.030;4.586;2022-07-29T05:59:19;102049.88;;;17.04;100.00
41684;BME280;27369;52.030;4.586;2022-07-29T06:01:44;102060.09;;;16.98;100.00
41684;BME280;27369;52.030;4.586;2022-07-29T06:04:09;102063.25;;;16.91;100.00
41684;BME280;27369;52.030;4.586;2022-07-29T06:06:35;102061.47;;;16.75;100.00
41684;BME280;27369;52.030;4.586;2022-07-29T06:09:00;102061.09;;;16.84;100.00
41684;BME280;27369;52.030;4.586;2022-07-29T06:11:26;102060.66;;;17.09;100.00
41684;BME280;27369;52.030;4.586;2022-07-29T06:13:51;102058.81;;;17.24;100.00
41684;BME280;27369;52.030;4.586;2022-07-29T06:16:18;102064.91;;;17.23;100.00
41684;BME280;27369;52.030;4.586;2022-07-29T06:18:43;102058.94;;;17.43;100.00
41684;BME280;27369;52.030;4.586;2022-07-29T06:21:08;102063.06;;;17.22;100.00
41684;BME280;27369;52.030;4.586;2022-07-29T06:23:37;102076.56;;;17.28;100.00
41684;BME280;27369;52.030;4.586;2022-07-29T06:26:03;102070.38;;;17.62;100.00
41684;BME280;27369;52.030;4.586;2022-07-29T06:28:28;102084.44;;;17.62;100.00
41684;BME280;27369;52.030;4.586;2022-07-29T06:30:54;102079.09;;;17.61;100.00
41684;BME280;27369;52.030;4.586;2022-07-29T06:33:19;102080.88;;;17.96;100.00
41684;BME280;27369;52.030;4.586;2022-07-29T06:35:44;102088.00;;;17.99;100.00
41684;BME280;27369;52.030;4.586;2022-07-29T06:38:12;102098.34;;;17.94;100.00
41684;BME280;27369;52.030;4.586;2022-07-29T06:40:40;102113.47;;;17.98;100.00
41684;BME280;27369;52.030;4.586;2022-07-29T06:43:24;102107.97;;;17.94;100.00
41684;BME280;27369;52.030;4.586;2022-07-29T06:45:49;102103.44;;;17.73;100.00
41684;BME280;27369;52.030;4.586;2022-07-29T06:48:14;102103.25;;;17.52;100.00
41684;BME280;27369;52.030;4.586;2022-07-29T06:50:40;102104.06;;;17.51;100.00
41684;BME280;27369;52.030;4.586;2022-07-29T06:53:05;102107.72;;;17.71;100.00
41684;BME280;27369;52.030;4.586;2022-07-29T06:55:30;102114.91;;;17.92;100.00
41684;BME280;27369;52.030;4.586;2022-07-29T06:57:56;102121.31;;;17.97;100.00
41684;BME280;27369;52.030;4.586;2022-07-29T07:00:21;102126.44;;;18.11;100.00
41684;BME280;27369;52.030;4.586;2022-07-29T07:02:46;102122.22;;;19.30;100.00
41684;BME280;27369;52.030;4.586;2022-07-29T07:05:11;102126.16;;;20.01;100.00
41684;BME280;27369;52.030;4.586;2022-07-29T07:07:37;102129.00;;;19.85;100.00
41684;BME280;27369;52.030;4.586;2022-07-29T07:10:02;102139.63;;;20.07;100.00
41684;BME280;27369;52.030;4.586;2022-07-29T07:12:28;102138.28;;;19.96;100.00
41684;BME280;27369;52.030;4.586;2022-07-29T07:14:53;102150.91;;;19.82;100.00
41684;BME280;27369;52.030;4.586;2022-07-29T07:17:18;102160.81;;;19.26;100.00
41684;BME280;27369;52.030;4.586;2022-07-29T07:19:44;102153.13;;;19.12;100.00
41684;BME280;27369;52.030;4.586;2022-07-29T07:22:10;102147.69;;;19.09;100.00
41684;BME280;27369;52.030;4.586;2022-07-29T07:24:35;102144.47;;;19.16;100.00
41684;BME280;27369;52.030;4.586;2022-07-29T07:27:00;102149.50;;;19.10;100.00
41684;BME280;27369;52.030;4.586;2022-07-29T07:29:25;102156.19;;;19.01;100.00
41684;BME280;27369;52.030;4.586;2022-07-29T07:31:51;102159.28;;;19.12;100.00
41684;BME280;27369;52.030;4.586;2022-07-29T07:34:16;102163.13;;;19.19;100.00
41684;BME280;27369;52.030;4.586;2022-07-29T07:36:41;102163.28;;;19.22;100.00
41684;BME280;27369;52.030;4.586;2022-07-29T07:39:06;102156.38;;;19.25;100.00
41684;BME280;27369;52.030;4.586;2022-07-29T07:41:32;102157.19;;;19.44;100.00
41684;BME280;27369;52.030;4.586;2022-07-29T07:43:57;102171.16;;;19.41;100.00
41684;BME280;27369;52.030;4.586;2022-07-29T07:46:22;102158.94;;;19.43;100.00
41684;BME280;27369;52.030;4.586;2022-07-29T07:48:47;102164.63;;;19.33;100.00
41684;BME280;27369;52.030;4.586;2022-07-29T07:51:13;102162.56;;;19.45;100.00
41684;BME280;27369;52.030;4.586;2022-07-29T07:53:38;102158.78;;;19.60;100.00
41684;BME280;27369;52.030;4.586;2022-07-29T07:56:03;102157.44;;;19.50;100.00
41684;BME280;27369;52.030;4.586;2022-07-29T07:58:31;102163.38;;;19.44;100.00
41684;BME280;27369;52.030;4.586;2022-07-29T08:00:56;102168.59;;;19.43;100.00
41684;BME280;27369;52.030;4.586;2022-07-29T08:03:21;102161.91;;;19.51;100.00
41684;BME280;27369;52.030;4.586;2022-07-29T08:05:47;102161.31;;;19.58;100.00
41684;BME280;27369;52.030;4.586;2022-07-29T08:08:13;102164.00;;;19.39;100.00
41684;BME280;27369;52.030;4.586;2022-07-29T08:10:38;102160.31;;;19.55;100.00
41684;BME280;27369;52.030;4.586;2022-07-29T08:13:21;102160.84;;;19.47;100.00
41684;BME280;27369;52.030;4.586;2022-07-29T08:15:46;102159.56;;;19.38;100.00
41684;BME280;27369;52.030;4.586;2022-07-29T08:18:12;102153.44;;;19.79;100.00
41684;BME280;27369;52.030;4.586;2022-07-29T08:20:37;102150.22;;;20.07;100.00
41684;BME280;27369;52.030;4.586;2022-07-29T08:23:04;102148.00;;;20.41;100.00
41684;BME280;27369;52.030;4.586;2022-07-29T08:25:31;102143.66;;;20.88;100.00
41684;BME280;27369;52.030;4.586;2022-07-29T08:27:56;102147.25;;;21.12;100.00
41684;BME280;27369;52.030;4.586;2022-07-29T08:30:21;102146.44;;;21.15;100.00
41684;BME280;27369;52.030;4.586;2022-07-29T08:32:47;102162.88;;;20.82;100.00
41684;BME280;27369;52.030;4.586;2022-07-29T08:35:12;102151.69;;;21.13;100.00
41684;BME280;27369;52.030;4.586;2022-07-29T08:37:38;102151.91;;;21.43;100.00
41684;BME280;27369;52.030;4.586;2022-07-29T08:40:03;102158.97;;;21.43;100.00
41684;BME280;27369;52.030;4.586;2022-07-29T08:42:28;102166.25;;;21.26;100.00
41684;BME280;27369;52.030;4.586;2022-07-29T08:44:54;102164.69;;;21.55;100.00
41684;BME280;27369;52.030;4.586;2022-07-29T08:47:19;102156.63;;;22.05;100.00
41684;BME280;27369;52.030;4.586;2022-07-29T08:49:45;102146.38;;;22.42;100.00
41684;BME280;27369;52.030;4.586;2022-07-29T08:52:12;102155.69;;;22.87;100.00
41684;BME280;27369;52.030;4.586;2022-07-29T08:54:39;102156.38;;;23.08;100.00
41684;BME280;27369;52.030;4.586;2022-07-29T08:57:04;102159.81;;;23.06;100.00
41684;BME280;27369;52.030;4.586;2022-07-29T08:59:30;102158.50;;;22.93;100.00
41684;BME280;27369;52.030;4.586;2022-07-29T09:01:57;102157.09;;;23.35;100.00
41684;BME280;27369;52.030;4.586;2022-07-29T09:04:24;102163.16;;;22.99;100.00
41684;BME280;27369;52.030;4.586;2022-07-29T09:06:51;102164.72;;;22.63;100.00
41684;BME280;27369;52.030;4.586;2022-07-29T09:09:17;102165.94;;;22.46;100.00
41684;BME280;27369;52.030;4.586;2022-07-29T09:11:42;102162.84;;;22.59;100.00
41684;BME280;27369;52.030;4.586;2022-07-29T09:14:07;102162.66;;;22.53;100.00
41684;BME280;27369;52.030;4.586;2022-07-29T09:16:46;102159.91;;;22.79;100.00
41684;BME280;27369;52.030;4.586;2022-07-29T09:19:21;102155.03;;;22.94;100.00
41684;BME280;27369;52.030;4.586;2022-07-29T09:21:47;102152.34;;;23.23;100.00
41684;BME280;27369;52.030;4.586;2022-07-29T09:24:46;102142.00;;;23.67;100.00
41684;BME280;27369;52.030;4.586;2022-07-29T09:29:37;102148.06;;;23.63;100.00
41684;BME280;27369;52.030;4.586;2022-07-29T09:32:05;102142.78;;;23.31;100.00
41684;BME280;27369;52.030;4.586;2022-07-29T09:34:31;102155.38;;;23.05;100.00
41684;BME280;27369;52.030;4.586;2022-07-29T09:36:57;102148.66;;;23.51;100.00
41684;BME280;27369;52.030;4.586;2022-07-29T09:39:29;102152.53;;;23.97;100.00
41684;BME280;27369;52.030;4.586;2022-07-29T09:41:55;102154.72;;;24.15;100.00
41684;BME280;27369;52.030;4.586;2022-07-29T09:44:22;102148.16;;;23.99;100.00
41684;BME280;27369;52.030;4.586;2022-07-29T09:46:57;102148.31;;;24.05;100.00
41684;BME280;27369;52.030;4.586;2022-07-29T09:49:24;102150.47;;;23.87;100.00
41684;BME280;27369;52.030;4.586;2022-07-29T09:51:58;102147.91;;;23.57;100.00
41684;BME280;27369;52.030;4.586;2022-07-29T09:54:24;102153.81;;;23.45;100.00
41684;BME280;27369;52.030;4.586;2022-07-29T09:56:53;102157.56;;;23.20;100.00
41684;BME280;27369;52.030;4.586;2022-07-29T09:59:18;102157.91;;;23.32;100.00
41684;BME280;27369;52.030;4.586;2022-07-29T10:01:46;102149.28;;;23.74;100.00
41684;BME280;27369;52.030;4.586;2022-07-29T10:04:13;102156.28;;;24.05;100.00
41684;BME280;27369;52.030;4.586;2022-07-29T10:09:22;102155.47;;;24.08;100.00
41684;BME280;27369;52.030;4.586;2022-07-29T10:12:02;102152.31;;;23.88;100.00
41684;BME280;27369;52.030;4.586;2022-07-29T10:14:27;102146.25;;;23.95;100.00
41684;BME280;27369;52.030;4.586;2022-07-29T10:16:54;102145.81;;;23.76;100.00
41684;BME280;27369;52.030;4.586;2022-07-29T10:19:19;102150.88;;;23.67;100.00
41684;BME280;27369;52.030;4.586;2022-07-29T10:21:45;102156.78;;;23.57;100.00
41684;BME280;27369;52.030;4.586;2022-07-29T10:24:10;102155.41;;;23.70;100.00
41684;BME280;27369;52.030;4.586;2022-07-29T10:26:35;102145.00;;;23.79;100.00
41684;BME280;27369;52.030;4.586;2022-07-29T10:29:02;102152.81;;;23.73;100.00
41684;BME280;27369;52.030;4.586;2022-07-29T10:31:35;102151.00;;;23.72;100.00
41684;BME280;27369;52.030;4.586;2022-07-29T10:44:39;102138.50;;;24.42;100.00
41684;BME280;27369;52.030;4.586;2022-07-29T10:47:05;102140.00;;;24.29;100.00
41684;BME280;27369;52.030;4.586;2022-07-29T10:49:30;102140.63;;;24.57;100.00
41684;BME280;27369;52.030;4.586;2022-07-29T10:51:57;102143.03;;;24.44;100.00
41684;BME280;27369;52.030;4.586;2022-07-29T10:54:36;102143.16;;;24.49;100.00
41684;BME280;27369;52.030;4.586;2022-07-29T10:57:24;102133.09;;;24.39;100.00
41684;BME280;27369;52.030;4.586;2022-07-29T11:07:24;102128.44;;;24.68;100.00
41684;BME280;27369;52.030;4.586;2022-07-29T11:10:34;102130.19;;;24.66;100.00
41684;BME280;27369;52.030;4.586;2022-07-29T11:15:04;102129.59;;;24.41;100.00
41684;BME280;27369;52.030;4.586;2022-07-29T11:18:15;102132.38;;;24.44;100.00
41684;BME280;27369;52.030;4.586;2022-07-29T11:20:32;102120.31;;;24.60;100.00
41684;BME280;27369;52.030;4.586;2022-07-29T11:22:58;102127.25;;;24.54;100.00
41684;BME280;27369;52.030;4.586;2022-07-29T11:25:23;102116.53;;;24.93;100.00
41684;BME280;27369;52.030;4.586;2022-07-29T11:27:49;102104.53;;;25.14;100.00
41684;BME280;27369;52.030;4.586;2022-07-29T11:30:14;102111.34;;;25.46;100.00
41684;BME280;27369;52.030;4.586;2022-07-29T11:32:40;102108.72;;;25.48;100.00
41684;BME280;27369;52.030;4.586;2022-07-29T11:35:27;102120.91;;;25.33;100.00
41684;BME280;27369;52.030;4.586;2022-07-29T11:40:35;102114.06;;;25.49;100.00
41684;BME280;27369;52.030;4.586;2022-07-29T11:43:00;102115.38;;;25.73;100.00
41684;BME280;27369;52.030;4.586;2022-07-29T11:45:26;102114.69;;;25.85;100.00
41684;BME280;27369;52.030;4.586;2022-07-29T11:47:57;102115.22;;;25.65;100.00
41684;BME280;27369;52.030;4.586;2022-07-29T11:50:27;102120.56;;;25.65;100.00
41684;BME280;27369;52.030;4.586;2022-07-29T11:52:53;102120.56;;;25.64;100.00
41684;BME280;27369;52.030;4.586;2022-07-29T11:55:19;102118.53;;;25.50;100.00
41684;BME280;27369;52.030;4.586;2022-07-29T12:00:34;102119.94;;;25.80;100.00
41684;BME280;27369;52.030;4.586;2022-07-29T12:03:01;102133.25;;;25.28;100.00
41684;BME280;27369;52.030;4.586;2022-07-29T12:05:30;102136.75;;;24.82;100.00
41684;BME280;27369;52.030;4.586;2022-07-29T12:07:58;102139.28;;;24.76;100.00
41684;BME280;27369;52.030;4.586;2022-07-29T12:10:31;102129.69;;;24.84;100.00
41684;BME280;27369;52.030;4.586;2022-07-29T12:12:57;102126.81;;;25.17;100.00
41684;BME280;27369;52.030;4.586;2022-07-29T12:15:22;102132.53;;;24.93;100.00
41684;BME280;27369;52.030;4.586;2022-07-29T12:17:49;102139.50;;;24.86;100.00
41684;BME280;27369;52.030;4.586;2022-07-29T12:20:21;102127.81;;;25.24;100.00
41684;BME280;27369;52.030;4.586;2022-07-29T12:22:47;102119.72;;;25.68;100.00
41684;BME280;27369;52.030;4.586;2022-07-29T12:25:14;102122.91;;;25.97;100.00
41684;BME280;27369;52.030;4.586;2022-07-29T12:27:41;102130.91;;;25.97;100.00
41684;BME280;27369;52.030;4.586;2022-07-29T12:30:09;102129.53;;;26.23;100.00
41684;BME280;27369;52.030;4.586;2022-07-29T12:32:39;102121.59;;;26.28;100.00
41684;BME280;27369;52.030;4.586;2022-07-29T12:35:05;102124.19;;;26.22;100.00
41684;BME280;27369;52.030;4.586;2022-07-29T12:37:32;102126.84;;;26.22;100.00
41684;BME280;27369;52.030;4.586;2022-07-29T12:39:58;102119.13;;;26.42;100.00
41684;BME280;27369;52.030;4.586;2022-07-29T12:42:23;102109.16;;;26.96;100.00
41684;BME280;27369;52.030;4.586;2022-07-29T12:44:49;102124.97;;;26.77;100.00
41684;BME280;27369;52.030;4.586;2022-07-29T12:47:15;102138.69;;;26.39;98.63
41684;BME280;27369;52.030;4.586;2022-07-29T12:49:41;102129.56;;;26.27;97.65
41684;BME280;27369;52.030;4.586;2022-07-29T12:54:50;102113.53;;;26.90;100.00
41684;BME280;27369;52.030;4.586;2022-07-29T12:57:15;102115.44;;;27.02;97.01
41684;BME280;27369;52.030;4.586;2022-07-29T12:59:41;102122.94;;;26.58;100.00
41684;BME280;27369;52.030;4.586;2022-07-29T13:02:06;102106.56;;;27.05;99.84
41684;BME280;27369;52.030;4.586;2022-07-29T13:04:32;102117.03;;;26.83;100.00
41684;BME280;27369;52.030;4.586;2022-07-29T13:07:06;102122.69;;;26.42;100.00
41684;BME280;27369;52.030;4.586;2022-07-29T13:09:36;102124.22;;;26.27;100.00
41684;BME280;27369;52.030;4.586;2022-07-29T13:12:05;102109.34;;;26.44;100.00
41684;BME280;27369;52.030;4.586;2022-07-29T13:17:02;102121.72;;;26.36;100.00
41684;BME280;27369;52.030;4.586;2022-07-29T13:19:38;102131.38;;;26.28;100.00
41684;BME280;27369;52.030;4.586;2022-07-29T13:22:05;102131.09;;;26.08;100.00
41684;BME280;27369;52.030;4.586;2022-07-29T13:24:30;102128.03;;;26.42;100.00
41684;BME280;27369;52.030;4.586;2022-07-29T13:26:55;102122.97;;;26.59;100.00
41684;BME280;27369;52.030;4.586;2022-07-29T13:29:21;102131.25;;;26.20;100.00
41684;BME280;27369;52.030;4.586;2022-07-29T13:31:46;102132.59;;;25.89;100.00
41684;BME280;27369;52.030;4.586;2022-07-29T13:34:11;102133.75;;;26.08;100.00
41684;BME280;27369;52.030;4.586;2022-07-29T13:36:36;102120.03;;;26.42;100.00
41684;BME280;27369;52.030;4.586;2022-07-29T13:39:02;102110.16;;;27.08;100.00